Time;durP1;ratioP1;P1;durP2;ratioP2;P2;SDS_P1;SDS_P2;PMS_P1;PMS_P2;Temp;Humidity;BMP_temperature;BMP_pressure;BME280_temperature;BME280_humidity;BME280_pressure;Samples;Min_cycle;Max_cycle;Signal;HPM_P1;HPM_P2
2023/01/04 00:00:19;;;;;;;21.80;9.07;;;4.30;99.90;;;;;;5070735;28;20518;-72
2023/01/04 00:02:46;;;;;;;16.97;8.70;;;4.20;99.90;;;;;;5069985;28;21035;-73
2023/01/04 00:05:13;;;;;;;19.90;9.43;;;4.20;99.90;;;;;;5070791;28;20452;-73
2023/01/04 00:07:39;;;;;;;18.27;8.43;;;4.20;99.90;;;;;;5070419;28;20491;-73
2023/01/04 00:10:06;;;;;;;18.83;8.60;;;4.20;99.90;;;;;;5070825;28;20463;-71
2023/01/04 00:12:35;;;;;;;21.20;8.77;;;4.20;99.90;;;;;;5070564;28;20447;-73
2023/01/04 00:15:03;;;;;;;18.70;8.40;;;4.20;99.90;;;;;;5073739;28;20444;-73
2023/01/04 00:17:30;;;;;;;18.17;8.83;;;4.20;99.90;;;;;;5074019;28;21013;-72
2023/01/04 00:19:57;;;;;;;19.17;8.83;;;4.10;99.90;;;;;;5074317;28;20521;-72
2023/01/04 00:22:23;;;;;;;16.23;7.90;;;4.10;99.90;;;;;;5074213;28;20798;-72
2023/01/04 00:24:50;;;;;;;18.03;7.80;;;4.20;99.90;;;;;;5073887;28;20471;-73
2023/01/04 00:27:16;;;;;;;18.97;9.00;;;4.20;99.90;;;;;;5074194;28;20488;-72
2023/01/04 00:29:43;;;;;;;16.73;7.70;;;4.20;99.90;;;;;;5073519;28;20476;-72
2023/01/04 00:32:11;;;;;;;18.17;9.43;;;4.20;99.90;;;;;;5074178;28;20478;-72
2023/01/04 00:34:37;;;;;;;17.77;7.73;;;4.20;99.90;;;;;;5073341;28;20886;-73
2023/01/04 00:37:04;;;;;;;19.10;8.40;;;4.20;99.90;;;;;;5074092;28;20501;-72
2023/01/04 00:39:31;;;;;;;14.57;8.17;;;4.20;99.90;;;;;;5073790;28;20998;-73
2023/01/04 00:42:03;;;;;;;14.63;7.50;;;4.20;99.90;;;;;;5073840;28;20460;-73
2023/01/04 00:44:31;;;;;;;16.37;8.60;;;4.20;99.90;;;;;;5073538;28;20455;-72
2023/01/04 00:46:58;;;;;;;18.73;7.47;;;4.20;99.90;;;;;;5073563;28;20537;-72
2023/01/04 00:49:28;;;;;;;14.33;8.17;;;4.20;99.90;;;;;;5073184;28;20514;-72
2023/01/04 00:51:55;;;;;;;13.37;8.00;;;4.20;99.90;;;;;;5071918;28;20444;-72
2023/01/04 00:54:21;;;;;;;16.40;7.20;;;4.30;99.90;;;;;;5073604;28;20448;-72
2023/01/04 00:56:49;;;;;;;17.90;7.63;;;4.20;99.90;;;;;;5073131;28;20857;-72
2023/01/04 00:59:18;;;;;;;20.97;7.77;;;4.30;99.90;;;;;;5073696;28;20452;-72
2023/01/04 01:01:45;;;;;;;14.73;8.50;;;4.30;99.90;;;;;;5073500;28;20477;-72
2023/01/04 01:04:13;;;;;;;15.40;8.30;;;4.30;99.90;;;;;;5073163;28;20447;-72
2023/01/04 01:06:42;;;;;;;19.10;7.33;;;4.30;99.90;;;;;;5072547;28;21234;-72
2023/01/04 01:09:09;;;;;;;14.60;7.50;;;4.30;99.90;;;;;;5073554;28;20467;-73
2023/01/04 01:11:37;;;;;;;27.50;9.10;;;4.30;99.90;;;;;;5073459;28;20509;-72
2023/01/04 01:14:04;;;;;;;17.70;7.13;;;4.30;99.90;;;;;;5073292;28;20448;-72
2023/01/04 01:16:31;;;;;;;23.03;8.47;;;4.30;99.90;;;;;;5073208;28;20522;-73
2023/01/04 01:18:58;;;;;;;16.27;8.60;;;4.30;99.90;;;;;;5072940;28;21013;-72
2023/01/04 01:21:26;;;;;;;17.53;8.13;;;4.30;99.90;;;;;;5072863;28;20467;-72
2023/01/04 01:23:55;;;;;;;13.90;7.30;;;4.30;99.90;;;;;;5072907;28;20451;-72
2023/01/04 01:26:23;;;;;;;18.97;8.30;;;4.30;99.90;;;;;;5073235;28;20452;-72
2023/01/04 01:28:51;;;;;;;22.83;8.47;;;4.30;99.90;;;;;;5073061;28;20452;-73
2023/01/04 01:31:20;;;;;;;9.10;6.30;;;4.40;99.90;;;;;;5073126;28;20894;-73
2023/01/04 01:33:48;;;;;;;9.03;5.70;;;4.30;99.90;;;;;;5072052;28;20464;-72
2023/01/04 01:36:16;;;;;;;11.20;5.80;;;4.30;99.90;;;;;;5072919;28;20452;-72
2023/01/04 01:38:44;;;;;;;9.80;5.80;;;4.40;99.90;;;;;;5072670;28;20850;-72
2023/01/04 01:41:18;;;;;;;11.60;6.10;;;4.50;99.90;;;;;;5072976;28;20468;-73
2023/01/04 01:43:48;;;;;;;8.20;5.23;;;4.70;99.90;;;;;;5072077;28;20466;-73
2023/01/04 01:46:17;;;;;;;8.37;5.87;;;5.00;99.90;;;;;;5072748;28;20521;-72
2023/01/04 01:48:44;;;;;;;9.67;5.77;;;5.20;99.90;;;;;;5072299;28;20827;-72
2023/01/04 01:51:11;;;;;;;8.50;4.60;;;5.20;99.90;;;;;;5066226;28;20499;-73
2023/01/04 01:53:40;;;;;;;6.83;5.20;;;5.40;99.90;;;;;;5072453;28;20453;-73
2023/01/04 01:56:09;;;;;;;9.03;5.90;;;5.50;99.90;;;;;;5072567;28;20494;-73
2023/01/04 01:58:40;;;;;;;14.83;6.13;;;5.60;99.90;;;;;;5072112;28;20498;-72
2023/01/04 02:01:08;;;;;;;11.53;5.03;;;5.60;99.90;;;;;;5072297;28;20597;-72
2023/01/04 02:03:38;;;;;;;10.87;6.20;;;5.60;99.90;;;;;;5072194;28;20452;-72
2023/01/04 02:06:08;;;;;;;15.80;6.30;;;5.60;99.90;;;;;;5072445;28;20501;-72
2023/01/04 02:08:37;;;;;;;12.13;6.67;;;5.60;99.90;;;;;;5072156;28;20488;-72
2023/01/04 02:11:04;;;;;;;12.20;6.30;;;5.60;99.90;;;;;;5072009;28;20823;-73
2023/01/04 02:16:26;;;;;;;22.47;6.90;;;5.60;99.90;;;;;;5065745;28;20444;-73
2023/01/04 02:19:01;;;;;;;14.50;7.80;;;5.60;99.90;;;;;;5071867;28;20505;-72
2023/01/04 02:21:35;;;;;;;12.00;7.53;;;5.60;99.90;;;;;;5071952;28;20479;-72
2023/01/04 02:24:25;;;;;;;13.80;7.90;;;5.60;99.90;;;;;;5072178;28;20444;-73
2023/01/04 02:27:28;;;;;;;12.70;8.23;;;5.60;99.90;;;;;;5071741;28;20545;-73
2023/01/04 02:30:39;;;;;;;12.80;8.40;;;5.60;99.90;;;;;;5069723;28;20547;-72
2023/01/04 02:33:15;;;;;;;15.30;8.63;;;5.60;99.90;;;;;;5064571;28;20506;-73
2023/01/04 02:35:53;;;;;;;13.37;7.40;;;5.60;99.90;;;;;;5070553;28;20944;-72
2023/01/04 02:38:25;;;;;;;12.43;8.43;;;5.60;99.90;;;;;;5072009;28;20505;-73
2023/01/04 02:41:01;;;;;;;14.40;8.40;;;5.60;99.90;;;;;;5071352;28;20476;-72
2023/01/04 02:46:26;;;;;;;18.53;7.50;;;5.60;99.90;;;;;;5066235;28;20853;-72
2023/01/04 02:51:38;;;;;;;12.60;7.60;;;5.60;99.90;;;;;;5071566;28;20546;-72
2023/01/04 02:54:08;;;;;;;11.53;7.97;;;5.60;99.90;;;;;;5071360;28;20448;-72
2023/01/04 02:56:52;;;;;;;15.00;7.07;;;5.60;99.90;;;;;;5071379;28;20911;-72
2023/01/04 02:59:50;;;;;;;12.70;7.47;;;5.60;99.90;;;;;;5071145;28;20505;-72
2023/01/04 03:08:17;;;;;;;14.20;7.93;;;5.60;99.90;;;;;;5070825;28;20577;-72
2023/01/04 03:10:50;;;;;;;12.40;7.80;;;5.50;99.90;;;;;;5071146;28;20540;-72
2023/01/04 03:13:21;;;;;;;13.60;8.23;;;5.50;99.90;;;;;;5071125;28;20802;-72
2023/01/04 03:15:51;;;;;;;14.40;8.10;;;5.40;99.90;;;;;;5071130;28;20448;-72
2023/01/04 03:18:22;;;;;;;14.67;9.10;;;5.40;99.90;;;;;;5071387;28;20451;-72
2023/01/04 03:20:54;;;;;;;23.27;10.77;;;5.40;99.90;;;;;;5070980;28;20464;-72
2023/01/04 03:37:25;;;;;;;18.33;10.70;;;5.20;99.90;;;;;;5071067;28;20519;-72
2023/01/04 03:48:39;;;;;;;19.10;9.47;;;5.10;99.90;;;;;;5073998;28;20486;-72
2023/01/04 03:51:14;;;;;;;18.10;9.10;;;5.10;99.90;;;;;;5066987;28;20508;-72
2023/01/04 03:53:48;;;;;;;17.63;9.93;;;5.10;99.90;;;;;;5075062;28;20458;-72
2023/01/04 03:56:17;;;;;;;15.07;9.60;;;5.10;99.90;;;;;;5074139;28;20485;-73
2023/01/04 03:58:45;;;;;;;13.03;8.73;;;5.10;99.90;;;;;;5075044;28;20448;-72
2023/01/04 04:01:12;;;;;;;16.23;9.10;;;5.10;99.90;;;;;;5074756;28;20467;-72
2023/01/04 04:09:08;;;;;;;15.83;8.83;;;5.10;99.90;;;;;;5074724;28;20645;-72
2023/01/04 04:11:35;;;;;;;14.07;8.90;;;5.00;99.90;;;;;;5074300;28;20505;-72
2023/01/04 04:14:02;;;;;;;14.67;8.63;;;5.00;99.90;;;;;;5074463;28;21004;-72
2023/01/04 04:16:29;;;;;;;11.60;8.23;;;5.00;99.90;;;;;;5074507;28;20447;-72
2023/01/04 04:18:55;;;;;;;16.30;7.97;;;5.10;99.90;;;;;;5074344;28;20509;-72
2023/01/04 04:21:22;;;;;;;17.80;8.10;;;5.10;99.90;;;;;;5074110;28;20471;-72
2023/01/04 04:23:49;;;;;;;16.17;9.20;;;5.10;99.90;;;;;;5074087;28;20459;-72
2023/01/04 04:26:17;;;;;;;14.30;8.90;;;5.10;99.90;;;;;;5074235;28;20572;-72
2023/01/04 04:28:44;;;;;;;18.50;8.57;;;5.10;99.90;;;;;;5074202;28;20545;-71
2023/01/04 04:31:11;;;;;;;12.10;7.07;;;5.10;99.90;;;;;;5073821;28;20479;-73
2023/01/04 04:33:38;;;;;;;10.87;7.70;;;5.10;99.90;;;;;;5073612;28;20517;-72
2023/01/04 04:36:06;;;;;;;12.47;7.90;;;5.10;99.90;;;;;;5065452;28;20443;-73
2023/01/04 04:38:33;;;;;;;13.90;8.03;;;5.10;99.90;;;;;;5073752;28;20448;-71
2023/01/04 04:43:45;;;;;;;17.23;9.47;;;5.10;99.90;;;;;;5073792;28;20448;-72
2023/01/04 04:46:12;;;;;;;14.97;8.50;;;5.10;99.90;;;;;;5073710;28;21010;-73
2023/01/04 04:48:38;;;;;;;19.20;8.30;;;5.10;99.90;;;;;;5074119;28;20537;-72
2023/01/04 04:51:05;;;;;;;17.33;7.23;;;5.10;99.90;;;;;;5073209;28;20514;-72
2023/01/04 04:53:32;;;;;;;12.43;7.97;;;5.10;99.90;;;;;;5073785;28;21100;-72
2023/01/04 04:55:59;;;;;;;11.80;5.63;;;5.10;99.90;;;;;;5073473;28;20456;-71
2023/01/04 04:58:25;;;;;;;8.20;5.63;;;5.20;99.90;;;;;;5073468;28;20502;-72
2023/01/04 05:00:53;;;;;;;8.57;5.60;;;5.30;99.90;;;;;;5073069;28;20525;-72
2023/01/04 05:03:20;;;;;;;8.83;5.40;;;5.40;99.90;;;;;;5073923;28;20456;-72
2023/01/04 05:05:46;;;;;;;8.90;6.33;;;5.50;99.90;;;;;;5072861;28;20452;-72
2023/01/04 05:08:13;;;;;;;10.67;6.10;;;5.50;99.90;;;;;;5073353;28;21052;-73
2023/01/04 05:10:40;;;;;;;7.83;5.60;;;5.60;99.90;;;;;;5073229;28;20479;-72
2023/01/04 05:13:09;;;;;;;8.50;6.70;;;5.60;99.90;;;;;;5073267;28;20493;-72
2023/01/04 05:15:39;;;;;;;9.27;6.20;;;5.60;99.90;;;;;;5073414;28;20475;-72
2023/01/04 05:18:08;;;;;;;9.70;6.83;;;5.60;99.90;;;;;;5073023;28;20464;-71
2023/01/04 05:20:35;;;;;;;11.17;7.47;;;5.70;99.90;;;;;;5073111;28;20749;-72
2023/01/04 05:23:02;;;;;;;9.80;6.97;;;5.70;99.90;;;;;;5073392;28;20498;-72
2023/01/04 05:25:29;;;;;;;11.57;7.83;;;5.70;99.90;;;;;;5072830;28;20460;-72
2023/01/04 05:27:56;;;;;;;14.20;8.47;;;5.70;99.90;;;;;;5073067;28;20492;-72
2023/01/04 05:33:08;;;;;;;21.80;10.23;;;5.70;99.90;;;;;;5073018;28;20478;-73
2023/01/04 05:35:35;;;;;;;17.20;9.70;;;5.70;99.90;;;;;;5071980;28;20521;-72
2023/01/04 05:38:01;;;;;;;19.27;11.30;;;5.70;99.90;;;;;;5072901;28;20451;-72
2023/01/04 05:40:28;;;;;;;18.23;11.13;;;5.70;99.90;;;;;;5072414;28;20877;-72
2023/01/04 05:42:55;;;;;;;15.40;9.93;;;5.70;99.90;;;;;;5072896;28;20510;-73
2023/01/04 05:45:22;;;;;;;14.97;9.90;;;5.70;99.90;;;;;;5072835;28;20869;-72
2023/01/04 05:47:50;;;;;;;17.53;10.60;;;5.70;99.90;;;;;;5072592;28;20483;-71
2023/01/04 05:50:19;;;;;;;17.53;9.87;;;5.70;99.90;;;;;;5065099;28;20468;-72
2023/01/04 05:52:46;;;;;;;19.27;10.93;;;5.70;99.90;;;;;;5072588;28;20456;-72
2023/01/04 05:55:13;;;;;;;21.77;12.67;;;5.70;99.90;;;;;;5072433;28;20455;-72
2023/01/04 05:57:40;;;;;;;19.03;10.50;;;5.70;99.90;;;;;;5072449;28;21105;-72
2023/01/04 06:00:09;;;;;;;20.27;11.17;;;5.70;99.90;;;;;;5071825;28;20517;-71
2023/01/04 06:02:36;;;;;;;20.23;12.30;;;5.70;99.90;;;;;;5067636;28;20452;-72
2023/01/04 06:05:02;;;;;;;19.63;12.27;;;5.70;99.90;;;;;;5067962;28;20870;-71
2023/01/04 06:07:31;;;;;;;21.23;11.13;;;5.70;99.90;;;;;;5070817;28;20452;-71
2023/01/04 06:09:57;;;;;;;18.30;11.83;;;5.70;99.90;;;;;;5071567;28;21058;-71
2023/01/04 06:12:24;;;;;;;19.10;11.97;;;5.70;99.90;;;;;;5071373;28;20474;-71
2023/01/04 06:14:51;;;;;;;18.20;12.77;;;5.70;99.90;;;;;;5071847;28;20454;-71
2023/01/04 06:17:17;;;;;;;15.87;11.47;;;5.70;99.90;;;;;;5071782;28;20460;-71
2023/01/04 06:19:44;;;;;;;18.67;10.63;;;5.70;99.90;;;;;;5071999;28;20472;-71
2023/01/04 06:22:11;;;;;;;15.83;11.10;;;5.70;99.90;;;;;;5071605;28;20509;-71
2023/01/04 06:24:39;;;;;;;15.90;10.37;;;5.80;99.90;;;;;;5071367;28;20936;-71
2023/01/04 06:27:05;;;;;;;14.50;10.10;;;5.80;99.90;;;;;;5071749;28;20443;-71
2023/01/04 06:29:32;;;;;;;19.00;10.40;;;5.80;99.90;;;;;;5071854;28;20488;-71
2023/01/04 06:31:59;;;;;;;14.50;10.13;;;5.80;99.90;;;;;;5071474;28;20460;-71
2023/01/04 06:34:25;;;;;;;17.63;10.03;;;5.80;99.90;;;;;;5070488;28;20460;-71
2023/01/04 06:36:52;;;;;;;15.63;9.70;;;5.80;99.90;;;;;;5070941;28;21032;-71
2023/01/04 06:39:19;;;;;;;12.60;8.90;;;5.80;99.90;;;;;;5071676;28;20862;-71
2023/01/04 06:41:46;;;;;;;14.07;9.73;;;5.80;99.90;;;;;;5071448;28;20452;-71
2023/01/04 06:44:13;;;;;;;14.60;8.90;;;5.80;99.90;;;;;;5071833;28;20448;-71
2023/01/04 06:46:40;;;;;;;10.43;8.40;;;5.90;99.90;;;;;;5071367;28;21019;-71
2023/01/04 06:49:07;;;;;;;16.33;8.43;;;5.90;99.90;;;;;;5070863;28;20495;-72
2023/01/04 06:51:33;;;;;;;13.50;8.90;;;6.00;99.90;;;;;;5071140;28;20472;-71
2023/01/04 06:54:00;;;;;;;11.40;7.60;;;6.00;99.90;;;;;;5071392;28;20461;-71
2023/01/04 06:56:27;;;;;;;8.63;7.73;;;6.00;99.90;;;;;;5070524;28;20510;-71
2023/01/04 06:58:55;;;;;;;10.40;7.60;;;6.00;99.90;;;;;;5071419;28;20452;-71
2023/01/04 07:01:21;;;;;;;21.40;8.10;;;6.10;99.90;;;;;;5071528;28;20476;-71
2023/01/04 07:03:48;;;;;;;9.30;7.13;;;6.10;99.90;;;;;;5070682;28;20452;-71
2023/01/04 07:06:14;;;;;;;12.47;7.30;;;6.10;99.90;;;;;;5071026;28;20996;-71
2023/01/04 07:08:41;;;;;;;9.47;6.47;;;6.10;99.90;;;;;;5070816;28;20488;-70
2023/01/04 07:11:08;;;;;;;14.20;8.00;;;6.20;99.90;;;;;;5070833;28;20921;-71
2023/01/04 07:13:34;;;;;;;9.93;6.70;;;6.20;99.90;;;;;;5071097;28;20562;-71
2023/01/04 07:16:02;;;;;;;13.17;6.40;;;6.20;99.90;;;;;;5070903;28;20467;-71
2023/01/04 07:18:29;;;;;;;13.93;7.60;;;6.20;99.90;;;;;;5070692;28;20518;-71
2023/01/04 07:20:55;;;;;;;12.73;6.93;;;6.30;99.90;;;;;;5070430;28;20522;-71
2023/01/04 07:23:22;;;;;;;8.33;7.10;;;6.30;99.90;;;;;;5070676;28;20525;-71
2023/01/04 07:25:49;;;;;;;7.97;6.20;;;6.20;99.90;;;;;;5070719;28;20452;-71
2023/01/04 07:29:13;;;;;;;9.20;6.77;;;6.20;99.90;;;;;;5070798;28;20555;-72
2023/01/04 07:31:08;;;;;;;6.93;6.00;;;6.20;99.90;;;;;;5070535;28;20466;-72
2023/01/04 07:33:34;;;;;;;6.40;5.80;;;6.30;99.90;;;;;;5070211;28;20460;-71
2023/01/04 07:36:05;;;;;;;5.80;5.20;;;6.30;99.90;;;;;;5070798;28;20464;-71
2023/01/04 07:38:33;;;;;;;7.20;6.40;;;6.30;99.90;;;;;;5070961;28;20458;-71
2023/01/04 07:40:59;;;;;;;6.03;5.40;;;6.40;99.90;;;;;;5070837;28;20994;-72
2023/01/04 07:43:26;;;;;;;6.23;5.07;;;6.40;99.90;;;;;;5070466;28;20487;-71
2023/01/04 07:45:53;;;;;;;4.70;4.30;;;6.50;99.90;;;;;;5069331;28;20452;-72
2023/01/04 07:48:21;;;;;;;8.03;4.70;;;6.50;99.90;;;;;;5070407;28;21083;-71
2023/01/04 07:50:47;;;;;;;6.60;5.50;;;6.60;99.90;;;;;;5070383;28;20541;-71
2023/01/04 07:53:14;;;;;;;6.63;5.83;;;6.60;99.90;;;;;;5070252;28;20912;-71
2023/01/04 07:55:40;;;;;;;6.37;5.53;;;6.60;99.90;;;;;;5070913;28;20460;-71
2023/01/04 07:58:07;;;;;;;6.93;6.00;;;6.60;99.90;;;;;;5068027;28;20463;-71
2023/01/04 08:00:34;;;;;;;11.00;5.77;;;6.60;99.90;;;;;;5064655;28;20464;-71
2023/01/04 08:03:00;;;;;;;11.53;5.23;;;6.60;99.90;;;;;;5070942;28;20463;-71
2023/01/04 08:05:31;;;;;;;6.67;5.80;;;6.70;99.90;;;;;;5070767;28;20452;-71
2023/01/04 08:07:58;;;;;;;10.10;7.00;;;6.70;99.90;;;;;;5070755;28;20506;-71
2023/01/04 08:10:25;;;;;;;7.00;5.50;;;6.70;99.90;;;;;;5070868;28;20468;-71
2023/01/04 08:12:51;;;;;;;7.20;5.83;;;6.70;99.90;;;;;;5070028;28;20857;-71
2023/01/04 08:15:18;;;;;;;11.23;4.90;;;6.70;99.90;;;;;;5069335;28;20464;-71
2023/01/04 08:17:45;;;;;;;5.37;4.50;;;6.80;99.90;;;;;;5070881;28;20454;-71
2023/01/04 08:20:11;;;;;;;5.37;4.50;;;6.80;99.90;;;;;;5070398;28;20525;-71
2023/01/04 08:22:39;;;;;;;5.83;4.53;;;6.90;99.90;;;;;;5069286;28;20492;-71
2023/01/04 08:25:07;;;;;;;7.13;4.30;;;7.00;99.90;;;;;;5069936;28;20506;-72
2023/01/04 08:27:33;;;;;;;7.37;5.40;;;7.00;99.90;;;;;;5070065;28;20525;-71
2023/01/04 08:30:00;;;;;;;9.20;5.93;;;7.00;99.90;;;;;;5069814;28;20552;-71
2023/01/04 08:32:27;;;;;;;5.30;4.80;;;7.00;99.90;;;;;;5070310;28;20866;-72
2023/01/04 08:34:54;;;;;;;7.30;5.57;;;7.00;99.90;;;;;;5071184;28;20518;-72
2023/01/04 08:37:21;;;;;;;6.50;5.40;;;7.00;99.90;;;;;;5074220;28;20452;-71
2023/01/04 08:39:49;;;;;;;5.50;4.83;;;7.00;99.90;;;;;;5073645;28;20883;-71
2023/01/04 08:42:15;;;;;;;5.43;4.20;;;7.00;99.90;;;;;;5074018;28;20505;-71
2023/01/04 08:44:42;;;;;;;5.40;4.97;;;7.10;99.90;;;;;;5072629;28;20944;-71
2023/01/04 08:47:09;;;;;;;5.10;4.67;;;7.10;99.90;;;;;;5073198;28;20451;-71
2023/01/04 08:49:35;;;;;;;9.40;4.10;;;7.10;99.90;;;;;;5072864;28;20475;-71
2023/01/04 08:52:02;;;;;;;7.47;4.60;;;7.20;99.90;;;;;;5072931;28;20912;-71
2023/01/04 08:54:29;;;;;;;4.23;3.80;;;7.20;99.90;;;;;;5073319;28;20943;-71
2023/01/04 08:56:57;;;;;;;5.97;4.40;;;7.30;99.90;;;;;;5073619;28;20459;-71
2023/01/04 08:59:23;;;;;;;10.00;4.97;;;7.20;99.90;;;;;;5073120;28;20810;-71
2023/01/04 09:01:50;;;;;;;5.30;4.80;;;7.20;99.90;;;;;;5073272;28;21000;-71
2023/01/04 09:04:16;;;;;;;7.20;4.80;;;7.20;99.90;;;;;;5072902;28;21016;-71
2023/01/04 09:06:43;;;;;;;6.47;4.73;;;7.20;99.90;;;;;;5072668;28;20444;-72
2023/01/04 09:09:10;;;;;;;5.83;5.23;;;7.20;99.90;;;;;;5072671;28;20491;-70
2023/01/04 09:11:38;;;;;;;5.80;4.83;;;7.20;99.90;;;;;;5069079;28;20452;-71
2023/01/04 09:14:07;;;;;;;5.47;4.33;;;7.20;99.90;;;;;;5066828;28;20510;-71
2023/01/04 09:16:34;;;;;;;6.07;4.80;;;7.20;99.90;;;;;;5071050;28;20448;-71
2023/01/04 09:19:00;;;;;;;3.57;3.27;;;7.20;99.90;;;;;;5071390;28;20447;-71
2023/01/04 09:21:27;;;;;;;3.50;3.20;;;7.30;99.90;;;;;;5069735;28;20468;-71
2023/01/04 09:23:54;;;;;;;3.53;2.80;;;7.40;99.90;;;;;;5072832;28;20501;-70
2023/01/04 09:26:22;;;;;;;2.67;2.47;;;7.50;99.90;;;;;;5072888;28;20448;-69
2023/01/04 09:28:49;;;;;;;2.87;2.40;;;7.60;99.90;;;;;;5073127;28;20484;-70
2023/01/04 09:31:19;;;;;;;3.10;2.90;;;7.80;99.90;;;;;;5071337;28;20497;-72
2023/01/04 09:33:46;;;;;;;2.77;2.40;;;8.00;99.90;;;;;;5068694;28;20457;-72
2023/01/04 09:36:14;;;;;;;2.83;2.50;;;8.10;99.90;;;;;;5068769;28;20464;-73
2023/01/04 09:38:41;;;;;;;2.25;2.00;;;8.20;99.90;;;;;;5069114;28;20434;-70
2023/01/04 09:41:16;;;;;;;2.10;2.00;;;8.30;99.90;;;;;;5068848;28;20374;-70
2023/01/04 09:43:47;;;;;;;2.40;2.20;;;8.20;99.90;;;;;;5069161;28;20455;-70
2023/01/04 09:46:25;;;;;;;3.10;2.83;;;8.20;99.90;;;;;;5068935;28;20505;-70
2023/01/04 09:48:58;;;;;;;2.27;2.07;;;8.20;99.90;;;;;;5069338;28;20561;-71
2023/01/04 09:51:34;;;;;;;2.50;2.30;;;8.20;99.90;;;;;;5069177;28;20518;-70
2023/01/04 09:54:06;;;;;;;3.00;2.80;;;8.20;99.90;;;;;;5069108;28;20501;-72
2023/01/04 09:56:35;;;;;;;2.80;2.60;;;8.20;99.90;;;;;;5069115;28;20525;-71
2023/01/04 09:59:05;;;;;;;3.10;2.80;;;8.10;99.90;;;;;;5068203;28;20501;-71
2023/01/04 10:01:42;;;;;;;2.90;2.70;;;8.10;99.90;;;;;;5068254;28;20464;-71
2023/01/04 10:04:16;;;;;;;3.90;3.47;;;8.10;99.90;;;;;;5068935;28;20527;-70
2023/01/04 10:06:42;;;;;;;3.47;3.00;;;8.00;99.90;;;;;;5069020;28;20444;-70
2023/01/04 10:09:13;;;;;;;3.33;3.03;;;8.00;99.90;;;;;;5068926;28;21336;-70
2023/01/04 10:11:52;;;;;;;3.60;3.30;;;8.00;99.90;;;;;;5068660;28;20463;-70
2023/01/04 10:14:35;;;;;;;4.77;2.90;;;8.00;99.90;;;;;;5068601;28;20451;-70
2023/01/04 10:17:13;;;;;;;6.17;3.13;;;7.90;99.90;;;;;;5068585;28;20440;-70
2023/01/04 10:19:55;;;;;;;6.83;2.83;;;7.90;99.90;;;;;;5068228;28;20600;-70
2023/01/04 10:22:28;;;;;;;6.40;3.40;;;7.90;99.90;;;;;;5068594;28;20448;-70
2023/01/04 10:25:03;;;;;;;3.13;2.47;;;7.90;99.90;;;;;;5066974;28;21067;-70
2023/01/04 10:27:38;;;;;;;4.13;3.37;;;8.00;99.90;;;;;;5068334;28;21206;-71
2023/01/04 10:30:20;;;;;;;4.23;2.80;;;8.00;99.90;;;;;;5067523;28;21321;-70
2023/01/04 10:32:56;;;;;;;3.60;3.30;;;8.00;99.90;;;;;;5068445;28;20507;-70
2023/01/04 10:35:24;;;;;;;3.37;2.77;;;8.00;99.90;;;;;;5068551;28;20451;-70
2023/01/04 10:37:56;;;;;;;2.80;2.60;;;8.00;99.90;;;;;;5067336;28;20964;-70
2023/01/04 10:40:24;;;;;;;3.10;2.67;;;8.00;99.90;;;;;;5067935;28;20455;-70
2023/01/04 10:42:59;;;;;;;5.93;2.73;;;8.00;99.90;;;;;;5068243;28;20831;-70
2023/01/04 10:45:35;;;;;;;2.60;2.40;;;8.00;99.90;;;;;;5068158;28;20505;-71
2023/01/04 10:48:08;;;;;;;2.80;2.60;;;8.10;99.90;;;;;;5068049;28;20464;-70
2023/01/04 10:50:44;;;;;;;3.50;2.80;;;8.10;99.90;;;;;;5067631;28;20476;-70
2023/01/04 10:53:15;;;;;;;3.10;2.83;;;8.20;99.90;;;;;;5067806;28;20452;-70
2023/01/04 10:55:47;;;;;;;6.07;2.50;;;8.20;99.90;;;;;;5067492;28;20448;-70
2023/01/04 10:58:22;;;;;;;2.70;2.47;;;8.20;99.90;;;;;;5070977;28;20456;-70
2023/01/04 11:00:53;;;;;;;2.60;2.40;;;8.30;99.90;;;;;;5070884;28;20891;-71
2023/01/04 11:03:28;;;;;;;2.73;2.40;;;8.30;99.90;;;;;;5070952;28;20463;-70
2023/01/04 11:06:01;;;;;;;2.00;1.90;;;8.30;99.90;;;;;;5071020;28;20451;-70
2023/01/04 11:08:32;;;;;;;2.30;2.10;;;8.40;99.90;;;;;;5061888;28;20452;-70
2023/01/04 11:11:06;;;;;;;3.10;2.10;;;8.50;99.90;;;;;;5070397;28;20533;-70
2023/01/04 11:13:33;;;;;;;2.67;2.20;;;8.60;99.90;;;;;;5070926;28;20539;-69
2023/01/04 11:16:01;;;;;;;3.80;2.23;;;8.60;99.90;;;;;;5070355;28;20944;-69
2023/01/04 11:18:31;;;;;;;1.87;1.73;;;8.60;99.90;;;;;;5071008;28;20471;-69
2023/01/04 11:20:57;;;;;;;2.03;1.70;;;8.70;99.90;;;;;;5070437;28;20471;-69
2023/01/04 11:23:24;;;;;;;2.00;1.87;;;8.80;99.90;;;;;;5062820;28;20448;-70
2023/01/04 11:25:55;;;;;;;2.90;1.57;;;9.00;99.90;;;;;;5070087;28;20448;-70
2023/01/04 11:28:27;;;;;;;2.17;1.80;;;9.00;99.90;;;;;;5071176;28;20444;-70
2023/01/04 11:31:00;;;;;;;1.90;1.80;;;9.10;99.90;;;;;;5071077;28;20549;-70
2023/01/04 11:33:26;;;;;;;1.80;1.70;;;9.10;99.90;;;;;;5071008;28;20441;-69
2023/01/04 11:35:57;;;;;;;1.67;1.57;;;9.20;99.90;;;;;;5069978;28;20448;-70
2023/01/04 11:38:26;;;;;;;1.97;1.50;;;9.30;99.90;;;;;;5070406;28;20456;-69
2023/01/04 11:41:01;;;;;;;1.40;1.30;;;9.30;99.90;;;;;;5066015;28;20843;-70
2023/01/04 11:43:28;;;;;;;1.90;1.80;;;9.40;99.90;;;;;;5071141;28;20520;-70
2023/01/04 11:46:05;;;;;;;2.03;1.40;;;9.40;99.90;;;;;;5070564;28;20448;-70
2023/01/04 11:48:40;;;;;;;1.77;1.67;;;9.50;99.90;;;;;;5069348;28;20440;-70
2023/01/04 11:51:32;;;;;;;1.60;1.50;;;9.40;99.90;;;;;;5070712;28;20537;-70
2023/01/04 11:54:01;;;;;;;1.80;1.70;;;9.40;99.90;;;;;;5070831;28;20452;-71
2023/01/04 11:56:29;;;;;;;2.20;2.00;;;9.40;99.90;;;;;;5062885;28;20516;-70
2023/01/04 11:59:13;;;;;;;2.03;1.60;;;9.40;99.90;;;;;;5070783;28;20531;-70
2023/01/04 12:01:42;;;;;;;5.13;1.77;;;9.40;99.90;;;;;;5064813;28;20952;-70
2023/01/04 12:04:13;;;;;;;2.57;1.90;;;9.40;99.90;;;;;;5069963;28;20448;-70
2023/01/04 12:06:48;;;;;;;1.47;1.37;;;9.40;99.90;;;;;;5067413;28;20805;-70
2023/01/04 12:09:16;;;;;;;6.87;2.00;;;9.40;99.90;;;;;;5070500;28;20450;-70
2023/01/04 12:11:45;;;;;;;2.30;2.20;;;9.40;99.90;;;;;;5074091;28;20593;-70
2023/01/04 12:14:19;;;;;;;3.73;2.20;;;9.40;99.90;;;;;;5071863;28;20475;-71
2023/01/04 12:16:52;;;;;;;2.23;2.10;;;9.30;99.90;;;;;;5082309;28;20451;-71
2023/01/04 12:19:21;;;;;;;2.07;1.97;;;9.30;99.90;;;;;;5077193;28;20464;-70
2023/01/04 12:21:51;;;;;;;1.83;1.67;;;9.30;99.90;;;;;;5073755;28;20464;-71
2023/01/04 12:24:21;;;;;;;2.00;1.80;;;9.20;99.90;;;;;;5074343;28;20456;-71
2023/01/04 12:26:49;;;;;;;3.30;2.13;;;9.20;99.90;;;;;;5073935;28;20459;-71
2023/01/04 12:29:41;;;;;;;3.87;1.83;;;9.20;99.90;;;;;;5073286;28;20451;-71
2023/01/04 12:32:45;;;;;;;3.80;2.10;;;9.10;99.90;;;;;;5073184;28;20447;-71
2023/01/04 12:36:05;;;;;;;2.83;1.90;;;9.10;99.90;;;;;;5071656;28;20458;-71
2023/01/04 12:39:02;;;;;;;2.37;2.10;;;9.00;99.90;;;;;;5065533;28;20452;-71
2023/01/04 12:42:20;;;;;;;2.17;1.90;;;9.00;99.90;;;;;;5073792;28;20808;-71
2023/01/04 12:45:21;;;;;;;2.23;2.00;;;9.00;99.90;;;;;;5074090;28;20534;-71
2023/01/04 12:51:20;;;;;;;2.47;2.30;;;8.90;99.90;;;;;;5066309;28;20471;-69
2023/01/04 12:53:58;;;;;;;2.10;2.00;;;8.90;99.90;;;;;;5067731;28;20456;-71
2023/01/04 12:56:58;;;;;;;2.70;2.50;;;8.90;99.90;;;;;;5072643;28;20443;-70
2023/01/04 12:59:35;;;;;;;2.57;2.13;;;8.80;99.90;;;;;;5072081;28;20870;-70
2023/01/04 13:02:22;;;;;;;2.27;2.17;;;8.80;99.90;;;;;;5072794;28;20451;-70
2023/01/04 13:04:50;;;;;;;2.90;2.00;;;8.70;99.90;;;;;;5067502;28;20451;-70
2023/01/04 13:07:25;;;;;;;2.50;2.40;;;8.60;99.90;;;;;;5072393;28;20452;-70
2023/01/04 13:09:56;;;;;;;2.87;2.67;;;8.60;99.90;;;;;;5073096;28;20467;-70
2023/01/04 13:12:51;;;;;;;2.07;1.97;;;8.60;99.90;;;;;;5072988;28;20996;-71
2023/01/04 13:15:24;;;;;;;2.50;2.40;;;8.60;99.90;;;;;;5072400;28;20514;-70
2023/01/04 13:17:52;;;;;;;2.10;2.00;;;8.60;99.90;;;;;;5071221;28;20517;-70
2023/01/04 13:20:21;;;;;;;2.60;1.80;;;8.60;99.90;;;;;;5063137;28;20502;-70
2023/01/04 13:22:53;;;;;;;2.20;2.10;;;8.60;99.90;;;;;;5068285;28;20456;-70
2023/01/04 13:25:20;;;;;;;2.30;2.20;;;8.60;99.90;;;;;;5068103;28;20943;-69
2023/01/04 13:27:59;;;;;;;2.10;2.00;;;8.60;99.90;;;;;;5068870;28;20464;-70
2023/01/04 13:30:32;;;;;;;4.20;2.23;;;8.60;99.90;;;;;;5069144;28;20506;-71
2023/01/04 13:32:59;;;;;;;2.50;2.30;;;8.70;99.90;;;;;;5069536;28;20460;-71
2023/01/04 13:35:26;;;;;;;2.40;2.20;;;8.70;99.90;;;;;;5068654;28;20862;-71
2023/01/04 13:37:53;;;;;;;2.17;2.07;;;8.70;99.90;;;;;;5069428;28;20456;-71
2023/01/04 13:40:25;;;;;;;2.63;1.77;;;8.80;99.90;;;;;;5068434;28;20621;-71
2023/01/04 13:43:02;;;;;;;2.40;2.20;;;8.80;99.90;;;;;;5069141;28;20503;-71
2023/01/04 13:45:43;;;;;;;2.50;2.30;;;8.90;99.90;;;;;;5068182;28;20502;-71
2023/01/04 13:48:13;;;;;;;2.27;2.07;;;8.90;99.90;;;;;;5067221;28;20463;-71
2023/01/04 13:50:45;;;;;;;2.10;2.00;;;9.00;99.90;;;;;;5067547;28;20844;-71
2023/01/04 13:53:19;;;;;;;1.90;1.80;;;9.10;99.90;;;;;;5068279;28;20543;-70
2023/01/04 13:55:50;;;;;;;3.90;1.97;;;9.10;99.90;;;;;;5068279;28;20462;-70
2023/01/04 13:58:20;;;;;;;2.47;2.23;;;9.20;99.90;;;;;;5068539;28;20452;-71